TimeCDT,TemperatureF,Dew PointF,Humidity,Sea Level PressureIn,VisibilityMPH,Wind Direction,Wind SpeedMPH,Gust SpeedMPH,PrecipitationIn,Events,Conditions,WindDirDegrees,DateUTC
12:15 AM,38.5,31.1,75,30.08,10.0,ESE,10.4,-,N/A,,Clear,120,2013-04-21 05:15:00
12:35 AM,37.9,31.5,77,30.07,10.0,ESE,10.4,-,N/A,,Clear,120,2013-04-21 05:35:00
12:55 AM,37.8,31.6,79,30.07,10.0,ESE,10.4,-,N/A,,Clear,120,2013-04-21 05:55:00
1:15 AM,37.9,32.0,79,30.06,10.0,ESE,10.4,-,N/A,,Clear,120,2013-04-21 06:15:00
1:35 AM,37.8,32.0,80,30.06,10.0,ESE,10.4,-,N/A,,Clear,120,2013-04-21 06:35:00
4:15 AM,35.6,32.5,89,30.03,10.0,SE,8.1,-,N/A,,Clear,140,2013-04-21 09:15:00
4:35 AM,36.3,33.1,88,30.03,10.0,SE,8.1,-,N/A,,Clear,140,2013-04-21 09:35:00
4:55 AM,36.1,33.3,89,30.03,10.0,SSE,8.1,-,N/A,,Clear,150,2013-04-21 09:55:00
5:15 AM,36.5,33.6,89,30.03,10.0,SSE,9.2,-,N/A,,Clear,150,2013-04-21 10:15:00
5:35 AM,36.0,33.4,91,30.03,10.0,SSE,8.1,-,N/A,,Clear,150,2013-04-21 10:35:00
5:55 AM,35.6,33.4,92,30.03,10.0,SSE,8.1,-,N/A,,Clear,160,2013-04-21 10:55:00
6:15 AM,35.4,33.6,93,30.03,10.0,SSE,6.9,-,N/A,,Scattered Clouds,160,2013-04-21 11:15:00
6:35 AM,35.6,34.0,94,30.03,10.0,SSE,6.9,-,N/A,,Clear,160,2013-04-21 11:35:00
6:55 AM,36.9,35.2,94,30.04,10.0,SSE,5.8,-,N/A,,Scattered Clouds,160,2013-04-21 11:55:00
7:15 AM,39.2,36.9,91,30.04,10.0,South,10.4,-,N/A,,Scattered Clouds,170,2013-04-21 12:15:00
7:35 AM,41.4,37.9,88,30.05,10.0,South,10.4,-,N/A,,Clear,170,2013-04-21 12:35:00
7:55 AM,42.3,38.5,86,30.05,10.0,South,12.7,-,N/A,,Clear,170,2013-04-21 12:55:00
8:15 AM,44.2,39.7,84,30.06,10.0,South,8.1,-,N/A,,Clear,180,2013-04-21 13:15:00
8:35 AM,46.2,40.6,81,30.06,10.0,South,9.2,-,N/A,,Clear,180,2013-04-21 13:35:00
8:55 AM,48.6,41.5,77,30.05,10.0,South,9.2,-,N/A,,Clear,180,2013-04-21 13:55:00
9:15 AM,50.9,42.1,72,30.05,10.0,South,13.8,18.4,N/A,,Clear,190,2013-04-21 14:15:00
9:35 AM,53.6,41.9,65,30.05,10.0,SSW,17.3,23.0,N/A,,Clear,200,2013-04-21 14:35:00
9:55 AM,55.9,40.5,56,30.04,10.0,SSW,24.2,28.8,N/A,,Clear,200,2013-04-21 14:55:00
10:15 AM,56.3,40.5,55,30.04,10.0,SSW,21.9,27.6,N/A,,Clear,200,2013-04-21 15:15:00
10:35 AM,57.9,39.6,50,30.04,10.0,SSW,21.9,29.9,N/A,,Clear,200,2013-04-21 15:35:00
10:55 AM,59.0,38.8,47,30.03,10.0,SSW,24.2,29.9,N/A,,Clear,210,2013-04-21 15:55:00
11:15 AM,59.9,38.8,46,30.03,10.0,SSW,18.4,26.5,N/A,,Scattered Clouds,210,2013-04-21 16:15:00
11:35 AM,60.8,38.3,43,30.03,10.0,SSW,20.7,27.6,N/A,,Clear,210,2013-04-21 16:35:00
11:55 AM,60.3,37.8,43,30.03,10.0,SSW,23.0,-,N/A,,Scattered Clouds,210,2013-04-21 16:55:00
12:15 PM,62.8,38.3,40,30.02,10.0,SSW,21.9,26.5,N/A,,Scattered Clouds,210,2013-04-21 17:15:00
12:35 PM,63.7,38.8,40,30.02,10.0,SW,21.9,25.3,N/A,,Clear,230,2013-04-21 17:35:00
12:55 PM,65.7,39.0,38,30.02,10.0,SW,18.4,-,N/A,,Clear,230,2013-04-21 17:55:00
1:15 PM,66.6,37.4,34,30.01,10.0,SW,18.4,25.3,N/A,,Clear,230,2013-04-21 18:15:00
1:35 PM,67.1,37.9,34,30.00,10.0,SW,16.1,25.3,N/A,,Mostly Cloudy,220,2013-04-21 18:35:00
1:55 PM,68.0,37.8,33,30.00,10.0,SSW,18.4,25.3,N/A,,Scattered Clouds,210,2013-04-21 18:55:00
2:15 PM,68.4,37.4,32,29.99,10.0,SW,20.7,24.2,N/A,,Scattered Clouds,220,2013-04-21 19:15:00
2:35 PM,69.4,37.9,32,29.98,10.0,SW,16.1,24.2,N/A,,Mostly Cloudy,230,2013-04-21 19:35:00
2:55 PM,69.6,37.2,31,29.98,10.0,SSW,15.0,25.3,N/A,,Mostly Cloudy,210,2013-04-21 19:55:00
3:15 PM,70.7,37.4,30,29.97,10.0,SW,15.0,21.9,N/A,,Scattered Clouds,230,2013-04-21 20:15:00
3:35 PM,70.0,37.0,30,29.97,10.0,SSW,12.7,19.6,N/A,,Mostly Cloudy,210,2013-04-21 20:35:00
3:55 PM,69.8,37.0,30,29.97,10.0,West,12.7,23.0,N/A,,Overcast,260,2013-04-21 20:55:00
4:15 PM,71.4,37.8,29,29.97,10.0,SW,15.0,19.6,N/A,,Overcast,230,2013-04-21 21:15:00
4:35 PM,68.5,36.5,31,29.97,10.0,SW,10.4,-,N/A,,Mostly Cloudy,230,2013-04-21 21:35:00
4:55 PM,69.1,36.7,30,29.96,10.0,WSW,8.1,-,N/A,,Overcast,240,2013-04-21 21:55:00
5:15 PM,69.6,36.9,30,29.96,10.0,WSW,11.5,-,N/A,,Scattered Clouds,240,2013-04-21 22:15:00
5:35 PM,68.4,37.0,32,29.96,10.0,SW,10.4,-,N/A,,Mostly Cloudy,220,2013-04-21 22:35:00
5:55 PM,65.8,40.5,39,29.96,7.0,North,13.8,20.7,N/A,Rain,Rain,350,2013-04-21 22:55:00
6:15 PM,59.4,45.3,60,29.98,10.0,NNW,13.8,23.0,0.02,Rain,Heavy Rain,340,2013-04-21 23:15:00
6:35 PM,58.3,46.9,66,30.01,10.0,North,4.6,-,0.06,Rain,Light Rain,10,2013-04-21 23:35:00
6:55 PM,59.2,48.4,67,30.01,10.0,SE,4.6,-,0.07,Rain,Light Rain,130,2013-04-21 23:55:00
7:15 PM,57.2,51.3,81,30.01,10.0,East,8.1,-,N/A,,Mostly Cloudy,100,2013-04-22 00:15:00
7:35 PM,55.8,50.5,83,30.00,10.0,ENE,6.9,-,N/A,,Overcast,70,2013-04-22 00:35:00
7:55 PM,56.8,49.1,75,30.02,10.0,SSW,8.1,-,N/A,,Overcast,210,2013-04-22 00:55:00
8:15 PM,56.8,47.5,71,30.02,10.0,Calm,Calm,-,N/A,,Light Drizzle,0,2013-04-22 01:15:00
8:35 PM,54.0,48.4,81,30.03,10.0,NNE,6.9,-,N/A,,Scattered Clouds,20,2013-04-22 01:35:00
8:55 PM,52.5,48.7,87,30.04,10.0,NE,8.1,-,N/A,Thunderstorm,Clear,40,2013-04-22 01:55:00
9:15 PM,51.8,48.2,88,30.05,10.0,NE,6.9,-,N/A,,Clear,40,2013-04-22 02:15:00
9:35 PM,50.9,47.7,89,30.06,10.0,NE,12.7,-,N/A,,Clear,40,2013-04-22 02:35:00
9:55 PM,50.5,47.5,89,30.07,10.0,ENE,11.5,-,N/A,Thunderstorm,Scattered Clouds,60,2013-04-22 02:55:00
10:15 PM,50.0,47.5,91,30.10,10.0,NE,9.2,-,N/A,,Mostly Cloudy,40,2013-04-22 03:15:00
10:35 PM,49.8,47.3,91,30.11,10.0,NNE,13.8,-,N/A,Thunderstorm,Overcast,30,2013-04-22 03:35:00
10:55 PM,48.2,45.7,91,30.11,10.0,NNE,16.1,-,N/A,Thunderstorm,Overcast,20,2013-04-22 03:55:00
11:15 PM,47.1,45.0,92,30.12,10.0,North,13.8,-,N/A,,Mostly Cloudy,10,2013-04-22 04:15:00
11:35 PM,46.4,44.6,93,30.13,10.0,NNE,13.8,-,N/A,,Mostly Cloudy,20,2013-04-22 04:35:00
11:55 PM,46.0,44.1,93,30.12,10.0,NNE,16.1,-,N/A,,Mostly Cloudy,30,2013-04-22 04:55:00